Kezdőlap
METAR-TAF:

METAR-TAF

Repülőterek :

Csennai, India

földrajzi szélesség: 13-00N, földrajzi hosszúság: 080-11E, magasság: 10 m

Jelenlegi meteorológiai megfigyelések

A jelentés 17 perccel ezelõtt készült, 09:30 UTC
Délkeleti szél 13 kt
Hőmérséklet 36°C
Páratartalom 57%
Légköri nyomás 1000 hPa
Látótávolság: 6000 m
Kevés felhő 2000 lábon

METAR: VOMM 280930Z 13013KT 6000 FEW020 36/26 Q1000 NOSIG

Idő: 15:17 (09:47 UTC)

Előrejelzés

A jelentés 4 órával és 47 perccel ezelõtt készült, 05:00 UTC
Az előrejelzés 28-én 06 óra UTC és 29-én 12 óra UTC között érvényes
Keleti szél 10 kt
Látótávolság: 6000 m
Szórványos felhőzet 2000 lábon
28-én 12 óra UTC és 28-én 13 óra UTC között fokozatosan kialakuló
Dél-délkeleti szél 10 kt
29-én 06 óra UTC és 29-én 07 óra UTC között fokozatosan kialakuló
Keleti szél 10 kt

TAF: VOMM 280500Z 2806/2912 09010KT 6000 SCT020 BECMG 2812/2813 16010KT BECMG 2906/2907 09010KT

Meteorológiai megfigyelések és előrejelzések több, mint 4000 repülőtéren (METAR és TAF jelentéseket).

A térképen piros és sárga pontok jelzik az elérhető meteorológiai állomásokat.

Mozgassa az egeret a pont fölött, hogy megjelenjen az állomás neve.

Azután kattintson az időjárási megfigyelések és előrejelzések megtekintéséhez.

A térkép megváltoztatása: kattintson a fekete keresztel jelölt zöld gombra ráközelítéshez, a vonallal jelölt zöld gombra távolításhoz, vagy a zöld nyilakra a szomszédos térképek eléréséhez.


METAR-TAF: